createdAt,value
2018-01-12T00:00:41.068Z,26.65
2018-01-12T00:01:43.629Z,27.42
2018-01-12T00:02:46.149Z,27.30
2018-01-12T00:03:48.686Z,25.62
2018-01-12T00:04:51.993Z,27.87
2018-01-12T00:05:54.508Z,27.40
2018-01-12T00:06:57.058Z,28.65
2018-01-12T00:07:59.578Z,26.37
2018-01-12T00:09:02.117Z,28.52
2018-01-12T00:10:04.675Z,25.40
2018-01-12T00:11:07.193Z,29.20
2018-01-12T00:12:09.716Z,29.08
2018-01-12T00:13:12.245Z,28.50
2018-01-12T00:14:14.814Z,28.50
2018-01-12T00:15:17.328Z,28.77
2018-01-12T00:16:20.618Z,30.67
2018-01-12T00:17:23.904Z,29.50
2018-01-12T00:18:26.417Z,31.00
2018-01-12T00:19:28.970Z,29.00
2018-01-12T00:20:31.518Z,29.30
2018-01-12T00:21:34.042Z,30.42
2018-01-12T00:22:36.570Z,29.65
2018-01-12T00:23:39.150Z,30.10
2018-01-12T00:24:41.679Z,30.40
2018-01-12T00:25:44.200Z,29.17
2018-01-12T00:26:46.722Z,31.30
2018-01-12T00:27:49.240Z,32.00
2018-01-12T00:28:51.792Z,33.20
2018-01-12T00:29:54.309Z,31.40
2018-01-12T00:30:56.824Z,29.45
2018-01-12T00:31:59.346Z,32.47
2018-01-12T00:33:01.872Z,31.62
2018-01-12T00:34:04.419Z,33.17
2018-01-12T00:35:06.953Z,33.17
2018-01-12T00:36:09.630Z,34.03
2018-01-12T00:37:12.200Z,33.05
2018-01-12T00:38:14.705Z,32.90
2018-01-12T00:39:17.260Z,34.90
2018-01-12T00:40:19.879Z,31.50
2018-01-12T00:41:22.396Z,33.40
2018-01-12T00:42:24.923Z,32.30
2018-01-12T00:43:27.476Z,33.67
2018-01-12T00:44:30.022Z,33.28
2018-01-12T00:45:33.313Z,35.00
2018-01-12T00:46:35.864Z,33.60
2018-01-12T00:47:39.150Z,33.83
2018-01-12T00:48:42.472Z,33.97
2018-01-12T00:49:45.002Z,32.00
2018-01-12T00:50:48.321Z,31.85
2018-01-12T00:51:50.869Z,30.80
2018-01-12T00:52:53.399Z,30.48
2018-01-12T00:53:55.922Z,31.58
2018-01-12T00:54:58.441Z,31.58
2018-01-12T00:56:00.956Z,33.50
2018-01-12T00:57:03.514Z,31.15
2018-01-12T00:58:06.068Z,33.33
2018-01-12T00:59:08.586Z,30.85
2018-01-12T01:00:11.109Z,30.33
2018-01-12T01:01:13.660Z,30.35
2018-01-12T01:02:16.185Z,32.20
2018-01-12T01:03:18.710Z,32.90
2018-01-12T01:04:21.270Z,30.17
2018-01-12T01:05:23.785Z,31.60
2018-01-12T01:06:26.352Z,30.45
2018-01-12T01:07:28.881Z,32.25
2018-01-12T01:08:31.404Z,32.75
2018-01-12T01:09:34.738Z,30.08
2018-01-12T01:10:37.260Z,31.15
2018-01-12T01:11:40.544Z,32.25
2018-01-12T01:12:43.135Z,30.77
2018-01-12T01:13:45.688Z,30.25
2018-01-12T01:14:48.210Z,31.70
2018-01-12T01:15:50.724Z,32.15
2018-01-12T01:16:53.243Z,31.80
2018-01-12T01:17:56.550Z,30.88
2018-01-12T01:18:59.869Z,32.88
2018-01-12T01:20:02.393Z,33.10
2018-01-12T01:21:04.933Z,33.90
2018-01-12T01:22:07.495Z,33.13
2018-01-12T01:23:10.017Z,31.95
2018-01-12T01:24:12.634Z,34.88
2018-01-12T01:25:15.158Z,31.52
2018-01-12T01:26:17.677Z,35.47
2018-01-12T01:27:20.235Z,33.10
2018-01-12T01:28:22.790Z,34.50
2018-01-12T01:29:25.324Z,35.97
2018-01-12T01:30:27.840Z,34.42
2018-01-12T01:31:30.361Z,34.88
2018-01-12T01:32:32.877Z,34.58
2018-01-12T01:33:35.586Z,34.42
2018-01-12T01:34:38.127Z,33.60
2018-01-12T01:35:41.426Z,35.33
2018-01-12T01:36:44.713Z,34.00
2018-01-12T01:37:48.002Z,34.60
2018-01-12T01:38:50.589Z,31.12
2018-01-12T01:39:53.122Z,31.27
2018-01-12T01:40:56.405Z,31.35
2018-01-12T01:41:59.697Z,31.27
2018-01-12T01:43:02.982Z,31.33
2018-01-12T01:44:06.275Z,33.63
2018-01-12T01:45:08.824Z,32.42
2018-01-12T01:46:12.120Z,31.87
2018-01-12T01:47:14.813Z,33.63
2018-01-12T01:49:53.905Z,31.10
2018-01-12T01:50:57.194Z,35.90
2018-01-12T01:52:00.532Z,33.10
2018-01-12T01:53:03.053Z,32.33
2018-01-12T01:54:05.577Z,31.10
2018-01-12T01:55:08.097Z,31.17
2018-01-12T01:56:10.618Z,29.30
2018-01-12T01:57:13.185Z,34.40
2018-01-12T01:58:15.710Z,33.50
2018-01-12T01:59:18.236Z,30.58
2018-01-12T02:00:21.518Z,32.88
2018-01-12T02:01:24.801Z,34.80
2018-01-12T02:02:28.116Z,30.98
2018-01-12T02:03:30.641Z,30.27
2018-01-12T02:04:33.161Z,31.98
2018-01-12T02:05:35.680Z,29.27
2018-01-12T02:06:38.963Z,28.58
2018-01-12T02:07:42.309Z,30.95
2018-01-12T02:08:44.832Z,30.20
2018-01-12T02:09:47.358Z,32.63
2018-01-12T02:10:49.891Z,31.17
2018-01-12T02:11:52.424Z,30.27
2018-01-12T02:12:55.756Z,30.52
2018-01-12T02:13:58.313Z,34.53
2018-01-12T02:15:00.857Z,31.85
2018-01-12T02:16:03.386Z,35.08
2018-01-12T02:17:05.908Z,34.70
2018-01-12T02:18:08.437Z,35.67
2018-01-12T02:19:11.757Z,34.10
2018-01-12T02:20:14.289Z,33.92
2018-01-12T02:21:17.577Z,31.80
2018-01-12T02:22:20.096Z,31.92
2018-01-12T02:23:22.621Z,33.22
2018-01-12T02:24:25.168Z,31.50
2018-01-12T02:25:27.730Z,29.25
2018-01-12T02:26:31.025Z,32.78
2018-01-12T02:27:33.551Z,30.30
2018-01-12T02:28:36.080Z,33.58
2018-01-12T02:29:38.593Z,33.08
2018-01-12T02:30:41.926Z,32.75
2018-01-12T02:31:44.451Z,33.20
2018-01-12T02:32:47.753Z,35.47
2018-01-12T02:33:50.337Z,40.53
2018-01-12T02:34:52.865Z,37.35
2018-01-12T02:35:56.255Z,35.67
2018-01-12T02:36:58.732Z,36.60
2018-01-12T02:38:02.051Z,37.70
2018-01-12T02:39:04.613Z,40.90
2018-01-12T02:40:07.129Z,35.92
2018-01-12T02:41:09.658Z,39.60
2018-01-12T02:42:12.406Z,36.50
2018-01-12T02:43:15.021Z,35.85
2018-01-12T02:44:17.545Z,39.88
2018-01-12T02:45:20.074Z,38.20
2018-01-12T02:46:23.374Z,33.95
2018-01-12T02:47:26.778Z,37.45
2018-01-12T02:48:29.338Z,37.03
2018-01-12T02:49:31.854Z,42.45
2018-01-12T02:50:34.413Z,35.58
2018-01-12T02:51:36.973Z,41.00
2018-01-12T02:52:39.498Z,35.00
2018-01-12T02:53:42.027Z,34.30
2018-01-12T02:54:44.563Z,35.10
2018-01-12T02:55:47.896Z,34.38
2018-01-12T02:56:51.233Z,36.28
2018-01-12T02:57:53.761Z,37.10
2018-01-12T02:58:56.294Z,34.33
2018-01-12T02:59:58.822Z,40.28
2018-01-12T03:01:01.343Z,37.60
2018-01-12T03:02:04.654Z,37.95
2018-01-12T03:03:07.176Z,34.70
2018-01-12T03:04:09.693Z,35.15
2018-01-12T03:05:12.213Z,35.17
2018-01-12T03:06:14.767Z,31.77
2018-01-12T03:07:17.304Z,33.83
2018-01-12T03:08:19.830Z,33.72
2018-01-12T03:09:23.240Z,33.22
2018-01-12T03:10:25.764Z,34.75
2018-01-12T03:11:28.288Z,32.97
2018-01-12T03:12:30.809Z,32.38
2018-01-12T03:13:34.097Z,34.38
2018-01-12T03:14:37.508Z,37.53
2018-01-12T03:15:40.030Z,34.33
2018-01-12T03:16:42.558Z,33.97
2018-01-12T03:17:45.080Z,33.45
2018-01-12T03:18:48.373Z,32.65
2018-01-12T03:19:51.685Z,37.90
2018-01-12T03:20:54.239Z,36.15
2018-01-12T03:21:56.771Z,34.58
2018-01-12T03:23:00.054Z,39.45
2018-01-12T03:24:03.346Z,35.78
2018-01-12T03:25:06.673Z,36.58
2018-01-12T03:26:09.201Z,38.78
2018-01-12T03:27:12.498Z,36.17
2018-01-12T03:28:15.026Z,34.15
2018-01-12T03:29:17.549Z,41.85
2018-01-12T03:30:20.108Z,35.20
2018-01-12T03:31:22.654Z,36.13
2018-01-12T03:32:25.980Z,35.03
2018-01-12T03:33:28.505Z,32.97
2018-01-12T03:34:31.790Z,32.80
2018-01-12T03:35:35.084Z,34.72
2018-01-12T03:36:37.601Z,35.05
2018-01-12T03:37:40.167Z,32.88
2018-01-12T03:38:42.680Z,36.55
2018-01-12T03:39:45.226Z,36.35
2018-01-12T03:40:47.751Z,39.15
2018-01-12T03:41:50.280Z,33.17
2018-01-12T03:42:52.810Z,34.80
2018-01-12T03:43:55.365Z,34.45
2018-01-12T03:44:57.885Z,33.42
2018-01-12T03:46:00.410Z,32.38
2018-01-12T03:47:03.017Z,32.53
2018-01-12T03:48:05.576Z,31.70
2018-01-12T03:49:08.110Z,33.22
2018-01-12T03:50:10.629Z,37.85
2018-01-12T03:51:13.147Z,33.03
2018-01-12T03:52:15.688Z,32.95
2018-01-12T03:53:18.213Z,36.15
2018-01-12T03:54:20.747Z,32.97
2018-01-12T03:55:23.274Z,34.25
2018-01-12T03:56:25.813Z,32.97
2018-01-12T03:57:28.501Z,34.08
2018-01-12T03:58:31.784Z,31.70
2018-01-12T03:59:34.332Z,33.10
2018-01-12T04:00:36.857Z,32.05
2018-01-12T04:01:39.385Z,31.65
2018-01-12T04:02:41.934Z,31.48
2018-01-12T04:03:44.466Z,31.00
2018-01-12T04:04:47.034Z,34.40
2018-01-12T04:05:50.317Z,31.37
2018-01-12T04:06:52.840Z,32.67
2018-01-12T04:07:55.352Z,28.80
2018-01-12T04:08:57.942Z,32.53
2018-01-12T04:10:00.504Z,30.35
2018-01-12T04:11:03.037Z,33.78
2018-01-12T04:12:05.588Z,30.50
2018-01-12T04:13:08.115Z,32.50
2018-01-12T04:14:10.704Z,29.98
2018-01-12T04:15:13.204Z,31.35
2018-01-12T04:16:15.725Z,31.10
2018-01-12T04:17:18.256Z,30.15
2018-01-12T04:18:20.840Z,30.27
2018-01-12T04:19:23.405Z,30.62
2018-01-12T04:20:25.993Z,35.70
2018-01-12T04:21:28.529Z,30.15
2018-01-12T04:22:31.056Z,31.62
2018-01-12T04:23:33.710Z,34.67
2018-01-12T04:24:36.273Z,30.50
2018-01-12T04:25:38.794Z,31.75
2018-01-12T04:26:41.311Z,31.87
2018-01-12T04:27:43.842Z,31.55
2018-01-12T04:28:46.360Z,32.35
2018-01-12T04:29:48.917Z,31.92
2018-01-12T04:30:51.437Z,29.37
2018-01-12T04:31:53.993Z,31.75
2018-01-12T04:32:56.517Z,32.13
2018-01-12T04:33:59.032Z,30.05
2018-01-12T04:35:01.554Z,31.10
2018-01-12T04:36:04.068Z,34.88
2018-01-12T04:37:06.629Z,30.30
2018-01-12T04:38:09.146Z,28.83
2018-01-12T04:39:11.766Z,29.65
2018-01-12T04:40:14.288Z,28.65
2018-01-12T04:41:16.850Z,31.02
2018-01-12T04:42:19.377Z,32.63
2018-01-12T04:43:21.909Z,31.10
2018-01-12T04:44:25.193Z,35.78
2018-01-12T04:45:28.473Z,28.45
2018-01-12T04:46:31.787Z,29.58
2018-01-12T04:47:34.317Z,38.92
2018-01-12T04:48:37.609Z,33.60
2018-01-12T04:49:40.905Z,33.25
2018-01-12T04:50:43.428Z,32.22
2018-01-12T04:51:45.976Z,29.90
2018-01-12T04:52:48.505Z,30.33
2018-01-12T04:53:51.069Z,30.70
2018-01-12T04:54:53.591Z,33.72
2018-01-12T04:55:56.108Z,29.15
2018-01-12T04:56:58.635Z,30.42
2018-01-12T04:58:01.165Z,31.00
2018-01-12T04:59:03.808Z,32.20
2018-01-12T05:00:06.342Z,31.02
2018-01-12T05:01:08.862Z,28.35
2018-01-12T05:02:11.391Z,30.35
2018-01-12T05:03:13.933Z,36.35
2018-01-12T05:04:16.475Z,29.73
2018-01-12T05:05:19.013Z,29.15
2018-01-12T05:06:21.547Z,28.25
2018-01-12T05:07:24.890Z,32.97
2018-01-12T05:08:27.474Z,28.65
2018-01-12T05:09:30.023Z,35.40
2018-01-12T05:10:32.556Z,32.08
2018-01-12T05:11:35.081Z,28.83
2018-01-12T05:12:37.762Z,30.75
2018-01-12T05:13:40.294Z,28.25
2018-01-12T05:14:42.821Z,29.05
2018-01-12T05:15:45.353Z,31.87
2018-01-12T05:16:47.924Z,26.17
2018-01-12T05:17:51.231Z,31.52
2018-01-12T05:18:53.809Z,29.58
2018-01-12T05:19:56.337Z,27.33
2018-01-12T05:20:58.868Z,34.80
2018-01-12T05:22:01.445Z,31.05
2018-01-12T05:23:04.074Z,29.65
2018-01-12T05:24:06.604Z,34.20
2018-01-12T05:25:09.209Z,29.30
2018-01-12T05:26:11.732Z,32.05
2018-01-12T05:27:14.389Z,30.08
2018-01-12T05:28:16.919Z,35.65
2018-01-12T05:29:19.438Z,29.27
2018-01-12T05:30:21.965Z,29.95
2018-01-12T05:31:24.479Z,30.48
2018-01-12T05:32:27.036Z,33.22
2018-01-12T05:33:29.601Z,31.65
2018-01-12T05:34:32.125Z,34.03
2018-01-12T05:35:34.649Z,35.80
2018-01-12T05:36:37.945Z,36.08
2018-01-12T05:37:40.470Z,39.88
2018-01-12T05:38:43.033Z,35.90
2018-01-12T05:39:45.580Z,36.72
2018-01-12T05:40:48.106Z,35.95
2018-01-12T05:41:50.640Z,37.58
2018-01-12T05:42:53.163Z,36.63
2018-01-12T05:43:55.732Z,36.17
2018-01-12T05:44:58.264Z,34.03
2018-01-12T05:46:01.559Z,35.65
2018-01-12T05:47:04.083Z,37.35
2018-01-12T05:48:06.601Z,37.13
2018-01-12T05:49:09.173Z,39.38
2018-01-12T05:50:11.695Z,38.15
2018-01-12T05:51:14.216Z,40.33
2018-01-12T05:52:16.751Z,40.60
2018-01-12T05:53:19.275Z,41.30
2018-01-12T05:54:21.832Z,41.15
2018-01-12T05:55:24.355Z,46.60
2018-01-12T05:56:26.910Z,41.10
2018-01-12T05:57:30.192Z,36.38
2018-01-12T05:58:33.487Z,36.20
2018-01-12T05:59:36.009Z,37.20
2018-01-12T06:00:38.579Z,43.22
2018-01-12T06:01:53.070Z,48.03
2018-01-12T06:03:07.384Z,39.33
2018-01-12T06:04:22.652Z,40.47
2018-01-12T06:05:37.735Z,38.42
2018-01-12T06:06:40.424Z,40.90
2018-01-12T06:07:42.973Z,38.28
2018-01-12T06:08:45.502Z,36.05
2018-01-12T06:09:48.020Z,35.30
2018-01-12T06:10:50.584Z,34.45
2018-01-12T06:11:53.134Z,34.80
2018-01-12T06:12:55.654Z,39.42
2018-01-12T06:13:58.189Z,38.05
2018-01-12T06:15:00.711Z,40.45
2018-01-12T06:16:04.000Z,37.17
2018-01-12T06:17:07.314Z,42.55
2018-01-12T06:18:09.843Z,41.13
2018-01-12T06:19:13.131Z,37.65
2018-01-12T06:20:16.432Z,39.17
2018-01-12T06:21:18.967Z,38.28
2018-01-12T06:22:22.289Z,36.65
2018-01-12T06:23:24.839Z,35.90
2018-01-12T06:24:28.129Z,36.90
2018-01-12T06:25:31.451Z,35.28
2018-01-12T06:26:33.973Z,34.13
2018-01-12T06:27:37.264Z,35.67
2018-01-12T06:28:39.780Z,35.00
2018-01-12T06:29:42.302Z,39.78
2018-01-12T06:30:44.873Z,37.42
2018-01-12T06:31:47.394Z,36.38
2018-01-12T06:32:49.922Z,36.55
2018-01-12T06:33:52.457Z,36.00
2018-01-12T06:34:55.750Z,36.13
2018-01-12T06:35:58.322Z,36.33
2018-01-12T06:37:00.853Z,37.20
2018-01-12T06:38:04.142Z,37.10
2018-01-12T06:39:07.433Z,39.00
2018-01-12T06:40:10.739Z,37.25
2018-01-12T06:41:13.304Z,39.72
2018-01-12T06:42:15.824Z,40.22
2018-01-12T06:43:18.345Z,39.47
2018-01-12T06:44:20.872Z,38.67
2018-01-12T06:45:24.164Z,37.33
2018-01-12T06:46:27.513Z,41.63
2018-01-12T06:47:30.035Z,37.63
2018-01-12T06:48:32.566Z,36.47
2018-01-12T06:49:35.093Z,37.67
2018-01-12T06:50:37.605Z,37.35
2018-01-12T06:51:40.933Z,36.28
2018-01-12T06:52:43.465Z,36.33
2018-01-12T06:53:46.752Z,33.90
2018-01-12T06:54:50.040Z,34.42
2018-01-12T06:55:52.581Z,33.55
2018-01-12T06:56:55.149Z,31.55
2018-01-12T06:57:57.673Z,33.65
2018-01-12T06:59:00.217Z,31.20
2018-01-12T07:00:02.737Z,33.15
2018-01-12T07:01:05.258Z,31.27
2018-01-12T07:02:07.819Z,31.17
2018-01-12T07:03:10.341Z,33.53
2018-01-12T07:04:12.905Z,32.92
2018-01-12T07:05:15.434Z,33.47
2018-01-12T07:06:17.971Z,31.80
2018-01-12T07:07:20.501Z,32.40
2018-01-12T07:08:23.018Z,31.75
2018-01-12T07:09:25.590Z,31.92
2018-01-12T07:10:28.121Z,31.58
2018-01-12T07:11:31.400Z,30.80
2018-01-12T07:12:34.725Z,32.45
2018-01-12T07:13:37.257Z,33.33
2018-01-12T07:14:40.593Z,30.85
2018-01-12T07:15:43.159Z,31.77
2018-01-12T07:16:45.682Z,32.50
2018-01-12T07:17:48.214Z,32.13
2018-01-12T07:18:50.734Z,31.00
2018-01-12T07:19:53.292Z,29.33
2018-01-12T07:21:07.875Z,32.20
2018-01-12T07:22:22.213Z,30.50
2018-01-12T07:23:36.760Z,27.40
2018-01-12T07:24:39.282Z,28.77
2018-01-12T07:25:42.573Z,28.02
2018-01-12T07:26:45.096Z,26.50
2018-01-12T07:27:47.622Z,28.95
2018-01-12T07:28:50.177Z,27.08
2018-01-12T07:29:52.731Z,28.42
2018-01-12T07:30:56.043Z,27.30
2018-01-12T07:31:58.572Z,28.35
2018-01-12T07:33:01.863Z,31.12
2018-01-12T07:34:04.394Z,28.58
2018-01-12T07:35:06.953Z,29.00
2018-01-12T07:36:09.523Z,28.67
2018-01-12T07:37:17.836Z,29.10
2018-01-12T07:38:20.364Z,27.55
2018-01-12T07:39:22.890Z,29.52
2018-01-12T07:40:26.184Z,31.37
2018-01-12T07:41:28.737Z,28.17
2018-01-12T07:42:32.029Z,28.50
2018-01-12T07:43:35.318Z,29.60
2018-01-12T07:44:37.881Z,29.92
2018-01-12T07:45:41.165Z,31.87
2018-01-12T07:46:44.497Z,30.85
2018-01-12T07:47:47.027Z,32.17
2018-01-12T07:48:49.547Z,28.98
2018-01-12T07:49:52.066Z,29.42
2018-01-12T07:50:54.578Z,29.85
2018-01-12T07:51:57.130Z,29.48
2018-01-12T07:53:05.250Z,28.12
2018-01-12T07:54:07.778Z,27.87
2018-01-12T07:55:10.325Z,30.20
2018-01-12T07:56:12.877Z,27.13
2018-01-12T07:57:15.405Z,28.62
2018-01-12T07:58:17.921Z,28.73
2018-01-12T07:59:20.445Z,30.10
2018-01-12T08:00:28.754Z,29.50
2018-01-12T08:01:37.708Z,31.08
2018-01-12T08:04:15.016Z,27.60
2018-01-12T08:05:17.538Z,28.98
2018-01-12T08:06:20.857Z,29.08
2018-01-12T08:07:23.387Z,26.40
2018-01-12T08:08:26.668Z,26.17
2018-01-12T08:09:29.952Z,27.23
2018-01-12T08:10:33.334Z,28.60
2018-01-12T08:11:36.632Z,29.52
2018-01-12T08:12:39.148Z,27.30
2018-01-12T08:13:41.697Z,28.40
2018-01-12T08:14:44.219Z,30.42
2018-01-12T08:15:47.568Z,29.00
2018-01-12T08:16:50.091Z,28.05
2018-01-12T08:17:52.673Z,28.50
2018-01-12T08:18:55.207Z,29.10
2018-01-12T08:19:58.484Z,31.20
2018-01-12T08:21:01.774Z,27.67
2018-01-12T08:22:05.059Z,28.23
2018-01-12T08:23:08.368Z,30.30
2018-01-12T08:24:10.931Z,28.65
2018-01-12T08:25:13.485Z,29.37
2018-01-12T08:26:16.012Z,27.92
2018-01-12T08:27:18.527Z,26.65
2018-01-12T08:28:21.043Z,27.73
2018-01-12T08:29:23.616Z,26.10
2018-01-12T08:30:26.130Z,27.37
2018-01-12T08:31:28.661Z,29.30
2018-01-12T08:32:31.170Z,27.17
2018-01-12T08:33:33.692Z,27.20
2018-01-12T08:34:37.003Z,27.02
2018-01-12T08:35:39.561Z,28.83
2018-01-12T08:36:42.134Z,29.08
2018-01-12T08:37:44.658Z,25.25
2018-01-12T08:38:47.172Z,31.08
2018-01-12T08:39:49.698Z,29.77
2018-01-12T08:40:52.261Z,28.80
2018-01-12T08:41:54.784Z,30.88
2018-01-12T08:42:57.309Z,30.20
2018-01-12T08:44:00.601Z,31.30
2018-01-12T08:45:03.897Z,29.20
2018-01-12T08:46:06.551Z,31.45
2018-01-12T08:47:09.841Z,29.25
2018-01-12T08:48:12.408Z,31.87
2018-01-12T08:49:14.936Z,30.30
2018-01-12T08:50:17.455Z,31.55
2018-01-12T08:51:20.030Z,29.63
2018-01-12T08:52:22.549Z,32.17
2018-01-12T08:53:25.068Z,29.42
2018-01-12T08:54:27.645Z,29.45
2018-01-12T08:55:30.160Z,30.48
2018-01-12T08:56:33.476Z,28.95
2018-01-12T08:57:36.016Z,27.90
2018-01-12T08:58:39.337Z,31.70
2018-01-12T08:59:41.851Z,28.80
2018-01-12T09:00:45.128Z,29.20
2018-01-12T09:01:47.653Z,27.30
2018-01-12T09:02:50.200Z,28.35
2018-01-12T09:03:52.748Z,25.83
2018-01-12T09:04:56.028Z,28.90
2018-01-12T09:05:59.305Z,28.52
2018-01-12T09:07:02.593Z,29.55
2018-01-12T09:08:05.881Z,29.98
2018-01-12T09:09:08.425Z,29.87
2018-01-12T09:10:10.969Z,28.20
2018-01-12T09:11:13.494Z,27.08
2018-01-12T09:12:16.019Z,27.33
2018-01-12T09:13:30.472Z,27.70
2018-01-12T09:14:48.399Z,28.30
2018-01-12T09:16:02.765Z,27.05
2018-01-12T09:17:06.864Z,27.37
2018-01-12T09:18:22.068Z,28.83
2018-01-12T09:21:13.176Z,26.62
2018-01-12T09:22:27.789Z,27.00
2018-01-12T09:23:31.099Z,27.50
2018-01-12T09:24:33.614Z,26.52
2018-01-12T09:25:36.202Z,27.85
2018-01-12T09:26:39.495Z,27.50
2018-01-12T09:27:42.019Z,27.55
2018-01-12T09:28:44.538Z,27.30
2018-01-12T09:29:47.049Z,27.80
2018-01-12T09:30:49.597Z,27.33
2018-01-12T09:31:52.125Z,27.30
2018-01-12T09:32:54.641Z,26.35
2018-01-12T09:33:57.165Z,27.30
2018-01-12T09:35:00.400Z,25.83
2018-01-12T09:36:02.946Z,25.52
2018-01-12T09:37:05.480Z,25.95
2018-01-12T09:38:19.845Z,27.05
2018-01-12T09:39:34.294Z,25.37
2018-01-12T09:40:47.995Z,24.67
2018-01-12T09:41:50.712Z,25.17
2018-01-12T09:42:53.252Z,25.42
2018-01-12T09:43:55.773Z,25.85
2018-01-12T09:44:59.060Z,25.25
2018-01-12T09:46:02.344Z,24.35
2018-01-12T09:47:16.709Z,25.45
2018-01-12T09:48:30.949Z,24.92
2018-01-12T09:49:45.330Z,26.67
2018-01-12T09:50:47.861Z,24.15
2018-01-12T09:51:50.400Z,23.58
2018-01-12T09:52:53.725Z,23.12
2018-01-12T09:53:56.241Z,24.50
2018-01-12T09:54:59.547Z,23.10
2018-01-12T09:56:02.073Z,23.85
2018-01-12T09:57:04.636Z,23.20
2018-01-12T09:58:07.179Z,24.15
2018-01-12T09:59:09.753Z,22.62
2018-01-12T10:00:23.091Z,24.37
2018-01-12T10:01:25.606Z,23.98
2018-01-12T10:02:28.136Z,24.00
2018-01-12T10:03:31.464Z,23.58
2018-01-12T10:04:33.985Z,23.45
2018-01-12T10:05:36.543Z,24.60
2018-01-12T10:06:39.198Z,25.60
2018-01-12T10:09:25.221Z,24.20
2018-01-12T10:10:28.510Z,24.63
2018-01-12T10:11:31.803Z,24.83
2018-01-12T10:12:35.094Z,25.05
2018-01-12T10:13:37.650Z,25.50
2018-01-12T10:14:40.923Z,25.40
2018-01-12T10:15:43.446Z,23.95
2018-01-12T10:16:45.959Z,24.48
2018-01-12T10:17:58.885Z,25.12
2018-01-12T10:19:01.437Z,24.00
2018-01-12T10:21:48.235Z,23.02
2018-01-12T10:22:50.759Z,21.95
2018-01-12T10:23:53.327Z,22.92
2018-01-12T10:24:55.884Z,22.70
2018-01-12T10:25:58.447Z,23.95
2018-01-12T10:27:00.964Z,23.12
2018-01-12T10:28:03.481Z,23.65
2018-01-12T10:29:06.919Z,25.45
2018-01-12T10:30:21.278Z,23.05
2018-01-12T10:33:04.129Z,21.42
2018-01-12T10:34:07.432Z,24.17
2018-01-12T10:35:18.699Z,22.10
2018-01-12T10:36:21.265Z,21.30
2018-01-12T10:37:23.789Z,24.45
2018-01-12T10:38:27.064Z,23.85
2018-01-12T10:39:30.345Z,25.25
2018-01-12T10:40:53.452Z,23.70
2018-01-12T10:42:01.861Z,23.58
2018-01-12T10:43:04.414Z,22.27
2018-01-12T10:44:06.937Z,24.20
2018-01-12T10:45:10.218Z,23.73
2018-01-12T10:46:36.399Z,22.67
2018-01-12T10:47:47.870Z,23.20
2018-01-12T10:48:58.042Z,22.50
2018-01-12T10:50:18.241Z,23.25
2018-01-12T10:51:27.460Z,24.75
2018-01-12T10:52:38.517Z,23.73
2018-01-12T10:53:41.806Z,25.35
2018-01-12T10:54:45.099Z,24.77
2018-01-12T10:55:48.405Z,23.45
2018-01-12T10:56:50.924Z,24.80
2018-01-12T10:57:53.454Z,25.30
2018-01-12T10:58:56.002Z,25.55
2018-01-12T10:59:58.525Z,24.77
2018-01-12T11:01:01.077Z,28.20
2018-01-12T11:02:03.601Z,26.35
2018-01-12T11:03:06.121Z,27.62
2018-01-12T11:04:08.637Z,30.17
2018-01-12T11:05:11.182Z,28.55
2018-01-12T11:06:13.711Z,29.45
2018-01-12T11:07:16.237Z,29.37
2018-01-12T11:08:18.761Z,29.00
2018-01-12T11:09:22.076Z,30.58
2018-01-12T11:10:24.643Z,29.90
2018-01-12T11:11:27.172Z,28.73
2018-01-12T11:12:29.688Z,29.25
2018-01-12T11:13:32.210Z,31.42
2018-01-12T11:14:35.529Z,30.10
2018-01-12T11:15:38.041Z,29.12
2018-01-12T11:16:40.569Z,30.45
2018-01-12T11:17:43.120Z,30.35
2018-01-12T11:18:45.664Z,29.05
2018-01-12T11:19:49.076Z,28.55
2018-01-12T11:20:51.637Z,28.92
2018-01-12T11:21:54.181Z,29.65
2018-01-12T11:22:57.470Z,28.65
2018-01-12T11:24:00.754Z,29.23
2018-01-12T11:25:04.034Z,30.30
2018-01-12T11:26:06.596Z,30.55
2018-01-12T11:27:09.108Z,29.48
2018-01-12T11:28:11.639Z,28.33
2018-01-12T11:29:14.911Z,30.20
2018-01-12T11:30:18.197Z,30.55
2018-01-12T11:31:20.777Z,31.62
2018-01-12T11:32:23.297Z,32.70
2018-01-12T11:33:25.813Z,31.75
2018-01-12T11:34:28.346Z,29.52
2018-01-12T11:35:30.856Z,29.98
2018-01-12T11:36:33.434Z,30.75
2018-01-12T11:37:35.962Z,30.17
2018-01-12T11:38:39.252Z,31.75
2018-01-12T11:39:42.549Z,30.70
2018-01-12T11:40:45.076Z,28.92
2018-01-12T11:41:47.646Z,30.92
2018-01-12T11:42:50.168Z,28.42
2018-01-12T11:43:52.704Z,29.35
2018-01-12T11:44:55.985Z,28.62
2018-01-12T11:45:59.274Z,29.02
2018-01-12T11:47:01.820Z,28.00
2018-01-12T11:48:05.137Z,26.77
2018-01-12T11:49:07.706Z,26.98
2018-01-12T11:50:10.253Z,27.17
2018-01-12T11:51:13.538Z,27.10
2018-01-12T11:52:16.058Z,23.67
2018-01-12T11:53:18.617Z,27.17
2018-01-12T11:54:21.901Z,28.45
2018-01-12T11:55:24.416Z,26.62
2018-01-12T11:56:27.695Z,26.55
2018-01-12T11:57:31.001Z,26.02
2018-01-12T11:58:33.554Z,26.60
2018-01-12T11:59:36.073Z,26.58
2018-01-12T12:00:38.597Z,26.70
2018-01-12T12:01:41.118Z,26.05
2018-01-12T12:02:43.668Z,26.23
2018-01-12T12:03:46.228Z,27.95
2018-01-12T12:04:48.915Z,27.25
2018-01-12T12:05:51.460Z,26.70
2018-01-12T12:06:53.976Z,25.25
2018-01-12T12:07:57.397Z,25.60
2018-01-12T12:08:59.945Z,25.25
2018-01-12T12:10:02.519Z,24.87
2018-01-12T12:11:05.041Z,25.58
2018-01-12T12:12:07.565Z,25.35
2018-01-12T12:13:10.082Z,25.85
2018-01-12T12:14:12.628Z,26.35
2018-01-12T12:15:15.183Z,25.42
2018-01-12T12:16:17.706Z,26.58
2018-01-12T12:17:20.282Z,24.70
2018-01-12T12:18:22.798Z,26.17
2018-01-12T12:19:25.356Z,25.58
2018-01-12T12:20:27.916Z,24.50
2018-01-12T12:21:30.433Z,25.08
2018-01-12T12:22:33.712Z,24.65
2018-01-12T12:23:36.996Z,25.55
2018-01-12T12:24:40.278Z,25.98
2018-01-12T12:25:43.604Z,24.87
2018-01-12T12:26:46.116Z,25.55
2018-01-12T12:27:49.404Z,26.30
2018-01-12T12:28:52.689Z,25.17
2018-01-12T12:29:55.974Z,25.23
2018-01-12T12:30:59.298Z,24.30
2018-01-12T12:32:01.831Z,24.15
2018-01-12T12:33:05.116Z,25.08
2018-01-12T12:34:08.437Z,24.48
2018-01-12T12:35:11.733Z,25.55
2018-01-12T12:36:14.254Z,24.52
2018-01-12T12:37:16.800Z,27.45
2018-01-12T12:38:19.318Z,25.10
2018-01-12T12:39:21.864Z,24.25
2018-01-12T12:40:24.373Z,25.23
2018-01-12T12:41:26.890Z,26.52
2018-01-12T12:42:29.435Z,26.83
2018-01-12T12:43:32.717Z,25.25
2018-01-12T12:44:35.996Z,25.73
2018-01-12T12:45:39.285Z,25.67
2018-01-12T12:46:41.806Z,27.02
2018-01-12T12:47:44.447Z,26.80
2018-01-12T12:48:46.977Z,26.50
2018-01-12T12:49:49.491Z,28.83
2018-01-12T12:50:52.017Z,28.00
2018-01-12T12:51:55.304Z,25.80
2018-01-12T12:52:58.637Z,27.95
2018-01-12T12:54:01.156Z,28.20
2018-01-12T12:55:04.441Z,29.33
2018-01-12T12:56:06.968Z,27.40
2018-01-12T12:57:09.484Z,29.20
2018-01-12T12:58:12.036Z,26.98
2018-01-12T12:59:15.316Z,30.27
2018-01-12T13:00:18.631Z,27.83
2018-01-12T13:01:21.144Z,28.15
2018-01-12T13:02:23.664Z,28.15
2018-01-12T13:03:26.186Z,28.05
2018-01-12T13:04:28.730Z,30.15
2018-01-12T13:05:31.250Z,28.40
2018-01-12T13:06:33.769Z,28.20
2018-01-12T13:07:36.285Z,29.08
2018-01-12T13:08:38.803Z,27.35
2018-01-12T13:09:41.345Z,28.55
2018-01-12T13:10:43.888Z,27.20
2018-01-12T13:11:46.413Z,27.45
2018-01-12T13:12:48.932Z,28.45
2018-01-12T13:13:51.447Z,27.75
2018-01-12T13:14:54.052Z,26.10
2018-01-12T13:15:56.595Z,26.73
2018-01-12T13:16:59.882Z,27.77
2018-01-12T13:18:03.164Z,25.55
2018-01-12T13:19:06.466Z,25.92
2018-01-12T13:20:09.011Z,24.65
2018-01-12T13:21:12.334Z,24.83
2018-01-12T13:22:14.858Z,25.12
2018-01-12T13:23:18.144Z,25.00
2018-01-12T13:24:21.456Z,23.83
2018-01-12T13:25:23.968Z,24.60
2018-01-12T13:26:26.584Z,25.35
2018-01-12T13:27:29.140Z,25.27
2018-01-12T13:28:31.692Z,24.85
2018-01-12T13:29:34.973Z,24.65
2018-01-12T13:30:38.253Z,23.25
2018-01-12T13:31:41.534Z,23.23
2018-01-12T13:32:44.817Z,24.20
2018-01-12T13:33:47.373Z,23.80
2018-01-12T13:34:50.066Z,24.45
2018-01-12T13:35:53.352Z,22.73
2018-01-12T13:36:56.641Z,23.52
2018-01-12T13:37:59.917Z,22.65
2018-01-12T13:39:03.210Z,20.98
2018-01-12T13:40:05.757Z,23.33
2018-01-12T13:41:09.037Z,23.70
2018-01-12T13:42:12.341Z,26.35
2018-01-12T13:43:15.624Z,23.45
2018-01-12T13:44:18.908Z,22.80